Flight Track Log - Related Links

Times and Time Zones

All times are in EDT time to prevent confusion due to time zone crossing. See the SKW4851 flight status page for this flight to view local times or setup timezone preferences in your user account.

Time Position Orientation Groundspeed Altitude Reporting Facility
EDT Latitude Longitude Course Direction KTS MPH feet Rate Location/Type
Mon 01:43:16 PM 40.8067 -112.0019 328° Northwest 185 213 4,700  Level Salt Lake Center
Mon 01:44:11 PM 40.8433 -112.0461 318° Northwest 219 252 6,000 1,617 Climbing Salt Lake Center
Mon 01:45:11 PM 40.8647 -112.1236 290° West 253 291 7,800 2,066 Climbing Salt Lake Center
Mon 01:46:00 PM 40.9485 -112.3661 343° North  Level FlightAware Approximate
Mon 01:46:13 PM 40.8939 -112.2161 293° West 268 308 10,200  Level Salt Lake Center
Mon 01:47:00 PM 41.0531 -112.4099 339° North  Level FlightAware Approximate
Mon 01:47:19 PM 40.9664 -112.3025 318° Northwest 287 330 12,900  Level Salt Lake Center
Mon 01:48:00 PM 41.1473 -112.4838 328° Northwest  Level FlightAware Approximate
Mon 01:48:17 PM 41.0328 -112.3789 319° Northwest 346 398 13,500  Level Salt Lake Center
Mon 01:49:19 PM 41.1128 -112.4625 322° Northwest 363 418 15,400 1,887 Climbing Salt Lake Center
Mon 01:50:21 PM 41.1997 -112.5394 326° Northwest 373 429 17,400 1,887 Climbing Salt Lake Center
Mon 01:51:23 PM 41.2836 -112.6297 321° Northwest 387 445 19,300 1,872 Climbing Salt Lake Center
Mon 01:52:26 PM 41.3558 -112.7344 313° West 382 440 21,300 1,584 Climbing Salt Lake Center
Mon 01:53:28 PM 41.4297 -112.8442 312° West 398 458 22,600 1,548 Climbing Salt Lake Center
Mon 01:54:30 PM 41.5169 -112.9794 311° West 400 460 24,500 1,597 Climbing Salt Lake Center
Mon 01:55:32 PM 41.5939 -113.0939 312° West 410 472 25,900 1,306 Climbing Salt Lake Center
Mon 01:56:34 PM 41.6692 -113.2094 311° West 412 474 27,200 1,016 Climbing Salt Lake Center
Mon 01:57:36 PM 41.7469 -113.3286 311° West 422 486 28,000 387 Climbing Salt Lake Center
Mon 01:58:38 PM 41.8256 -113.4519 311° West 429 494 28,000  Level Salt Lake Center
Mon 01:59:40 PM 41.9064 -113.5764 311° West 440 506 28,000  Level Salt Lake Center
Mon 02:00:42 PM 42.0506 -113.6447 341° North 460 529 28,000 48 Level Salt Lake Center
Mon 02:01:45 PM 42.1772 -113.6842 347° North 463 533 28,100  Climbing Salt Lake Center
Mon 02:02:47 PM 42.3039 -113.7236 347° North 464 534 28,000 -48 Descending Salt Lake Center
Mon 02:03:49 PM 42.4306 -113.7650 346° North 465 535 28,000 -726 Level Salt Lake Center
Mon 02:04:51 PM 42.5592 -113.8069 346° North 470 541 26,500 -2,177 Descending Salt Lake Center
Mon 02:05:53 PM 42.6886 -113.8500 346° North 476 548 23,500 -3,242 Descending Salt Lake Center
Mon 02:06:55 PM 42.8311 -113.8953 347° North 455 524 19,800 -3,387 Descending Salt Lake Center
Mon 02:07:57 PM 42.9506 -113.9344 347° North 426 490 16,500 -3,194 Descending Salt Lake Center
Mon 02:08:59 PM 43.0642 -113.9706 347° North 409 471 13,200 -3,097 Descending Salt Lake Center
Mon 02:10:01 PM 43.1714 -114.0094 345° North 387 445 10,100 -1,694 Descending Salt Lake Center
Mon 02:11:03 PM 43.2308 -114.0897 315° West 288 331 9,700 -387 Descending Salt Lake Center

Login

Don't have an account? Register now (free) for customized features, flight alerts, and more!